createdAt,value
2018-11-12T00:01:01.601Z,1008.21
2018-11-12T00:16:01.666Z,1008.4
2018-11-12T00:31:01.597Z,1008.42
2018-11-12T00:36:01.531Z,1008.57
2018-11-12T00:46:01.614Z,1008.7
2018-11-12T01:01:02.090Z,1008.93
2018-11-12T01:06:01.581Z,1009.09
2018-11-12T01:21:01.639Z,1009.24
2018-11-12T01:36:01.629Z,1009.41
2018-11-12T01:51:01.618Z,1009.56
2018-11-12T02:06:01.695Z,1009.64
2018-11-12T02:21:01.713Z,1009.77
2018-11-12T02:36:01.605Z,1009.97
2018-11-12T02:51:01.890Z,1009.95
2018-11-12T03:01:01.681Z,1010.02
2018-11-12T03:16:01.777Z,1010.08
2018-11-12T03:21:01.618Z,1010.08
2018-11-12T03:36:01.684Z,1010.14
2018-11-12T03:41:01.698Z,1010.14
2018-11-12T03:56:01.615Z,1010.35
2018-11-12T04:06:01.670Z,1010.38
2018-11-12T04:16:01.659Z,1010.51
2018-11-12T04:27:01.743Z,1010.56
2018-11-12T04:37:01.675Z,1010.65
2018-11-12T04:52:01.670Z,1010.8
2018-11-12T05:07:01.751Z,1010.97
2018-11-12T05:12:01.650Z,1010.97
2018-11-12T05:17:01.598Z,1010.72
2018-11-12T05:22:01.655Z,1010.72
2018-11-12T05:27:01.627Z,1010.97
2018-11-12T05:32:01.606Z,1010.97
2018-11-12T05:37:01.537Z,1011.1
2018-11-12T05:52:01.507Z,1011.18
2018-11-12T06:07:01.488Z,1011.01
2018-11-12T06:22:01.512Z,1011.04
2018-11-12T06:37:01.491Z,1011.24
2018-11-12T06:42:01.501Z,1011.24
2018-11-12T06:52:01.496Z,1011.23
2018-11-12T07:02:01.480Z,1011.23
2018-11-12T07:12:01.504Z,1011.37
2018-11-12T07:27:01.515Z,1011.25
2018-11-12T07:42:01.796Z,1011.26
2018-11-12T07:57:06.503Z,1011.45
2018-11-12T08:07:06.531Z,1011.51
2018-11-12T08:17:01.675Z,1011.56
2018-11-12T08:27:06.502Z,1011.6
2018-11-12T08:37:01.523Z,1011.56
2018-11-12T08:47:01.530Z,1011.58
2018-11-12T09:02:01.564Z,1011.34
2018-11-12T09:07:01.638Z,1011.35
2018-11-12T09:17:01.490Z,1011.34
2018-11-12T09:22:01.498Z,1011.34
2018-11-12T09:37:01.504Z,1011.36
2018-11-12T09:47:01.505Z,1011.38
2018-11-12T09:52:01.521Z,1011.38
2018-11-12T09:58:01.537Z,1011.46
2018-11-12T10:08:08.030Z,1011.25
2018-11-12T10:23:01.566Z,1011.31
2018-11-12T10:28:01.504Z,1011.18
2018-11-12T10:38:01.532Z,1011.15
2018-11-12T10:43:01.478Z,1011.15
2018-11-12T10:48:01.853Z,1010.96
2018-11-12T10:53:01.500Z,1010.96
2018-11-12T11:03:01.541Z,1010.92
2018-11-12T11:08:01.713Z,1010.65
2018-11-12T11:23:06.519Z,1010.54
2018-11-12T11:38:01.541Z,1010.4
2018-11-12T11:53:01.505Z,1010.56
2018-11-12T12:08:01.497Z,1010.8
2018-11-12T12:23:01.510Z,1010.66
2018-11-12T12:38:01.488Z,1010.48
2018-11-12T12:53:01.716Z,1010.43
2018-11-12T13:08:01.769Z,1010.2
2018-11-12T13:23:01.788Z,1010.24
2018-11-12T13:28:01.705Z,1010.21
2018-11-12T13:43:01.713Z,1010.02
2018-11-12T13:48:01.762Z,1010.0
2018-11-12T14:03:01.729Z,1009.97
2018-11-12T14:18:01.740Z,1009.91
2018-11-12T14:33:01.731Z,1010.07
2018-11-12T14:48:01.720Z,1009.84
2018-11-12T15:03:01.832Z,1009.8
2018-11-12T15:18:01.743Z,1009.65
2018-11-12T15:33:01.690Z,1009.47
2018-11-12T15:38:01.801Z,1009.47
2018-11-12T15:53:01.696Z,1009.37
2018-11-12T16:08:01.714Z,1009.21
2018-11-12T16:23:01.752Z,1009.23
2018-11-12T16:34:01.702Z,1009.55
2018-11-12T16:49:01.658Z,1009.8
2018-11-12T17:04:01.597Z,1010.01
2018-11-12T17:19:01.751Z,1010.17
2018-11-12T17:34:01.590Z,1010.2
2018-11-12T17:49:01.714Z,1010.48
2018-11-12T17:59:01.607Z,1010.46
2018-11-12T18:09:01.617Z,1010.56
2018-11-12T18:19:01.647Z,1010.67
2018-11-12T18:34:01.774Z,1010.68
2018-11-12T18:49:01.678Z,1011.08
2018-11-12T18:59:01.541Z,1010.99
2018-11-12T19:14:01.651Z,1011.25
2018-11-12T19:29:01.610Z,1011.31
2018-11-12T19:44:01.757Z,1011.3
2018-11-12T19:54:02.725Z,1011.58
2018-11-12T20:09:02.505Z,1011.99
2018-11-12T20:14:01.830Z,1011.99
2018-11-12T20:29:01.597Z,1012.34
2018-11-12T20:44:01.602Z,1012.41
2018-11-12T20:59:01.781Z,1012.47
2018-11-12T21:14:01.640Z,1012.53
2018-11-12T21:25:01.618Z,1012.57
2018-11-12T21:30:01.694Z,1012.57
2018-11-12T21:35:01.562Z,1012.97
2018-11-12T21:40:02.643Z,1012.97
2018-11-12T21:45:01.563Z,1012.99
2018-11-12T21:50:02.870Z,1012.99
2018-11-12T21:55:01.582Z,1012.96
2018-11-12T22:00:02.608Z,1012.96
2018-11-12T22:05:01.599Z,1013.22
2018-11-12T22:10:02.692Z,1013.22
2018-11-12T22:16:01.672Z,1013.32
2018-11-12T22:21:01.597Z,1013.32
2018-11-12T22:26:01.747Z,1013.29
2018-11-12T22:31:01.674Z,1013.29
2018-11-12T22:36:01.542Z,1013.24
2018-11-12T22:51:01.609Z,1013.39
2018-11-12T22:56:01.552Z,1013.09
2018-11-12T23:06:01.852Z,1013.35
2018-11-12T23:21:01.673Z,1013.4
2018-11-12T23:31:01.639Z,1013.38
2018-11-12T23:46:01.881Z,1013.34
